createdAt,value
2017-11-03T00:00:45.805Z,68.93
2017-11-03T00:03:12.203Z,68.26
2017-11-03T00:05:38.846Z,68.89
2017-11-03T00:08:05.999Z,68.22
2017-11-03T00:10:33.256Z,68.45
2017-11-03T00:12:59.507Z,69.57
2017-11-03T00:15:25.767Z,69.05
2017-11-03T00:17:52.800Z,68.99
2017-11-03T00:20:27.026Z,68.74
2017-11-03T00:22:54.333Z,68.71
2017-11-03T00:25:20.616Z,69.46
2017-11-03T00:27:47.625Z,70.03
2017-11-03T00:30:13.962Z,69.34
2017-11-03T00:32:40.350Z,69.03
2017-11-03T00:35:06.620Z,69.74
2017-11-03T00:37:32.887Z,70.25
2017-11-03T00:40:00.776Z,70.20
2017-11-03T00:42:27.047Z,69.66
2017-11-03T00:44:54.295Z,68.73
2017-11-03T00:47:20.771Z,68.57
2017-11-03T00:49:47.048Z,68.20
2017-11-03T00:52:13.524Z,67.80
2017-11-03T00:54:40.547Z,67.44
2017-11-03T00:57:06.943Z,67.02
2017-11-03T00:59:33.280Z,67.11
2017-11-03T01:01:59.648Z,67.46
2017-11-03T01:04:26.013Z,68.39
2017-11-03T01:06:53.178Z,68.23
2017-11-03T01:09:19.452Z,68.20
2017-11-03T01:11:47.214Z,68.62
2017-11-03T01:14:13.465Z,68.86
2017-11-03T01:16:39.718Z,69.35
2017-11-03T01:19:06.918Z,68.99
2017-11-03T01:21:33.509Z,68.47
2017-11-03T01:23:59.773Z,67.62
2017-11-03T01:26:26.069Z,67.53
2017-11-03T01:28:52.399Z,67.55
2017-11-03T01:31:18.675Z,68.08
2017-11-03T01:33:45.212Z,68.49
2017-11-03T01:36:11.516Z,69.06
2017-11-03T01:38:37.827Z,68.85
2017-11-03T01:41:04.047Z,69.36
2017-11-03T01:43:31.938Z,68.99
2017-11-03T01:45:58.259Z,68.81
2017-11-03T01:48:24.547Z,69.07
2017-11-03T01:50:50.836Z,69.36
2017-11-03T01:53:17.284Z,70.03
2017-11-03T01:55:43.556Z,70.35
2017-11-03T01:58:09.808Z,70.21
2017-11-03T02:00:36.074Z,70.04
2017-11-03T02:03:02.305Z,69.57
2017-11-03T02:05:28.552Z,69.40
2017-11-03T02:07:54.806Z,70.49
2017-11-03T02:10:21.060Z,69.72
2017-11-03T02:12:47.335Z,69.18
2017-11-03T02:15:13.592Z,69.31
2017-11-03T02:17:40.918Z,69.88
2017-11-03T02:20:07.277Z,71.45
2017-11-03T02:22:34.296Z,70.96
2017-11-03T02:25:00.563Z,70.84
2017-11-03T02:27:27.581Z,70.05
2017-11-03T02:29:53.825Z,70.73
2017-11-03T02:32:20.097Z,70.75
2017-11-03T02:34:46.336Z,71.00
2017-11-03T02:37:13.481Z,70.99
2017-11-03T02:39:39.753Z,70.88
2017-11-03T02:42:06.025Z,70.57
2017-11-03T02:44:32.293Z,70.58
2017-11-03T02:46:58.725Z,70.64
2017-11-03T02:49:25.011Z,70.57
2017-11-03T02:51:51.267Z,70.14
2017-11-03T02:54:17.533Z,70.45
2017-11-03T02:56:43.832Z,70.00
2017-11-03T02:59:10.085Z,70.79
2017-11-03T03:01:36.345Z,71.00
2017-11-03T03:04:13.307Z,70.60
2017-11-03T03:06:41.030Z,70.64
2017-11-03T03:09:07.281Z,70.40
2017-11-03T03:11:33.535Z,70.12
2017-11-03T03:14:00.514Z,71.25
2017-11-03T03:16:26.747Z,70.58
2017-11-03T03:18:52.973Z,70.25
2017-11-03T03:21:19.229Z,70.28
2017-11-03T03:23:45.536Z,70.81
2017-11-03T03:26:11.774Z,70.22
2017-11-03T03:28:38.020Z,70.53
2017-11-03T03:31:04.313Z,70.23
2017-11-03T03:33:31.307Z,70.53
2017-11-03T03:35:57.566Z,71.02
2017-11-03T03:38:23.961Z,70.85
2017-11-03T03:40:50.217Z,70.88
2017-11-03T03:43:16.488Z,71.24
2017-11-03T03:45:42.773Z,70.62
2017-11-03T03:48:09.873Z,69.65
2017-11-03T03:50:36.108Z,70.78
2017-11-03T03:53:02.465Z,70.39
2017-11-03T03:55:28.700Z,70.33
2017-11-03T03:57:54.926Z,70.17
2017-11-03T04:00:21.207Z,70.13
2017-11-03T04:02:48.187Z,70.50
2017-11-03T04:05:14.463Z,70.64
2017-11-03T04:07:40.715Z,70.18
2017-11-03T04:10:07.794Z,70.04
2017-11-03T04:12:34.058Z,70.73
2017-11-03T04:15:00.299Z,70.22
2017-11-03T04:17:28.049Z,71.06
2017-11-03T04:19:54.303Z,71.22
2017-11-03T04:22:21.328Z,71.27
2017-11-03T04:24:47.743Z,71.83
2017-11-03T04:27:13.959Z,70.83
2017-11-03T04:29:40.229Z,70.29
2017-11-03T04:32:06.618Z,70.72
2017-11-03T04:34:32.850Z,70.48
2017-11-03T04:36:59.092Z,70.56
2017-11-03T04:39:25.384Z,70.64
2017-11-03T04:41:51.750Z,71.10
2017-11-03T04:44:17.992Z,71.32
2017-11-03T04:46:44.231Z,72.25
2017-11-03T04:49:10.462Z,71.46
2017-11-03T04:51:36.754Z,71.80
2017-11-03T04:54:03.044Z,71.33
2017-11-03T04:56:30.108Z,71.95
2017-11-03T04:58:58.017Z,72.48
2017-11-03T05:01:24.306Z,72.34
2017-11-03T05:03:50.641Z,72.91
2017-11-03T05:06:17.069Z,72.70
2017-11-03T05:08:44.877Z,72.94
2017-11-03T05:11:11.121Z,72.85
2017-11-03T05:13:38.438Z,72.38
2017-11-03T05:16:04.713Z,72.99
2017-11-03T05:18:31.736Z,72.48
2017-11-03T05:20:58.004Z,73.25
2017-11-03T05:23:25.036Z,72.75
2017-11-03T05:25:51.314Z,72.36
2017-11-03T05:28:17.576Z,72.66
2017-11-03T05:30:43.860Z,72.30
2017-11-03T05:33:11.130Z,72.63
2017-11-03T05:35:38.252Z,72.83
2017-11-03T05:38:05.349Z,72.40
2017-11-03T05:40:31.669Z,72.86
2017-11-03T05:42:57.975Z,71.67
2017-11-03T05:45:24.304Z,71.20
2017-11-03T05:47:51.316Z,70.97
2017-11-03T05:50:17.649Z,71.74
2017-11-03T05:52:43.936Z,71.94
2017-11-03T05:55:10.319Z,71.20
2017-11-03T05:57:37.523Z,71.12
2017-11-03T06:00:03.781Z,71.15
2017-11-03T06:02:30.055Z,71.42
2017-11-03T06:04:57.063Z,70.74
2017-11-03T06:07:23.324Z,71.04
2017-11-03T06:09:50.390Z,70.74
2017-11-03T06:12:16.846Z,71.28
2017-11-03T06:14:43.126Z,71.20
2017-11-03T06:17:10.183Z,70.69
2017-11-03T06:19:37.475Z,70.04
2017-11-03T06:22:04.547Z,69.94
2017-11-03T06:24:31.733Z,70.60
2017-11-03T06:26:58.724Z,70.36
2017-11-03T06:29:25.044Z,69.47
2017-11-03T06:31:52.341Z,69.25
2017-11-03T06:34:18.612Z,69.07
2017-11-03T06:36:45.637Z,69.28
2017-11-03T06:39:11.896Z,69.31
2017-11-03T06:41:38.269Z,69.68
2017-11-03T06:44:04.496Z,69.72
2017-11-03T06:46:30.765Z,70.08
2017-11-03T06:48:57.812Z,70.03
2017-11-03T06:51:24.880Z,69.69
2017-11-03T06:53:51.204Z,68.98
2017-11-03T06:56:18.200Z,68.59
2017-11-03T06:58:44.446Z,68.61
2017-11-03T07:01:10.746Z,68.84
2017-11-03T07:03:37.042Z,68.68
2017-11-03T07:06:04.065Z,68.84
2017-11-03T07:08:30.320Z,68.39
2017-11-03T07:10:57.345Z,68.14
2017-11-03T07:13:24.328Z,67.74
2017-11-03T07:15:50.613Z,68.34
2017-11-03T07:18:16.884Z,67.37
2017-11-03T07:20:43.174Z,66.92
2017-11-03T07:23:09.449Z,66.93
2017-11-03T07:25:35.842Z,66.17
2017-11-03T07:28:02.091Z,65.64
2017-11-03T07:30:30.073Z,65.53
2017-11-03T07:32:56.466Z,65.49
2017-11-03T07:35:22.722Z,66.04
2017-11-03T07:37:49.718Z,65.55
2017-11-03T07:40:16.015Z,64.73
2017-11-03T07:42:42.330Z,65.32
2017-11-03T07:45:09.606Z,65.35
2017-11-03T07:47:36.050Z,65.04
2017-11-03T07:50:02.347Z,64.76
2017-11-03T07:52:29.338Z,64.57
2017-11-03T07:54:55.624Z,64.08
2017-11-03T07:57:22.636Z,62.78
2017-11-03T07:59:48.903Z,63.30
2017-11-03T08:02:15.925Z,64.33
2017-11-03T08:04:43.089Z,65.04
2017-11-03T08:07:10.096Z,63.86
2017-11-03T08:09:36.404Z,63.17
2017-11-03T08:12:02.839Z,63.20
2017-11-03T08:14:29.151Z,62.34
2017-11-03T08:16:55.447Z,61.89
2017-11-03T08:19:21.773Z,61.18
2017-11-03T08:21:48.796Z,61.23
2017-11-03T08:24:15.068Z,60.73
2017-11-03T08:26:42.079Z,60.03
2017-11-03T08:29:08.561Z,60.23
2017-11-03T08:31:35.582Z,61.30
2017-11-03T08:34:02.695Z,61.14
2017-11-03T08:36:29.030Z,60.17
2017-11-03T08:38:55.292Z,59.54
2017-11-03T08:41:21.605Z,60.19
2017-11-03T08:43:48.020Z,59.75
2017-11-03T08:46:14.337Z,58.40
2017-11-03T08:48:40.778Z,57.24
2017-11-03T08:51:07.202Z,57.14
2017-11-03T08:53:33.552Z,55.83
2017-11-03T08:56:00.003Z,56.14
2017-11-03T08:58:26.326Z,56.94
2017-11-03T09:00:52.671Z,57.01
2017-11-03T09:03:19.062Z,56.05
2017-11-03T09:05:45.426Z,57.59
2017-11-03T09:08:11.744Z,57.01
2017-11-03T09:10:38.049Z,56.35
2017-11-03T09:13:04.784Z,57.87
2017-11-03T09:15:31.845Z,57.71
2017-11-03T09:17:58.277Z,57.31
2017-11-03T09:20:24.768Z,57.48
2017-11-03T09:22:51.196Z,55.71
2017-11-03T09:25:17.567Z,54.99
2017-11-03T09:27:44.658Z,55.91
2017-11-03T09:30:11.043Z,54.47
2017-11-03T09:32:38.113Z,52.92
2017-11-03T09:35:04.441Z,53.12
2017-11-03T09:37:30.797Z,52.19
2017-11-03T09:39:57.165Z,51.53
2017-11-03T09:42:23.456Z,52.42
2017-11-03T09:44:49.852Z,51.67
2017-11-03T09:47:17.206Z,51.18
2017-11-03T09:49:44.337Z,51.34
2017-11-03T09:52:10.657Z,53.09
2017-11-03T09:54:36.960Z,55.41
2017-11-03T09:57:03.477Z,56.08
2017-11-03T09:59:29.802Z,55.62
2017-11-03T10:01:56.153Z,55.50
2017-11-03T10:04:22.500Z,55.38
2017-11-03T10:06:48.976Z,56.11
2017-11-03T10:11:50.389Z,54.65
2017-11-03T10:14:16.726Z,52.55
2017-11-03T10:16:43.026Z,53.41
2017-11-03T10:19:09.356Z,52.66
2017-11-03T10:21:36.266Z,51.66
2017-11-03T10:24:02.643Z,50.21
2017-11-03T10:26:28.964Z,51.17
2017-11-03T10:28:55.288Z,50.17
2017-11-03T10:31:21.661Z,50.15
2017-11-03T10:33:48.001Z,48.28
2017-11-03T10:36:14.283Z,46.90
2017-11-03T10:38:40.630Z,48.02
2017-11-03T10:41:06.924Z,47.34
2017-11-03T10:43:33.239Z,47.58
2017-11-03T10:46:01.089Z,47.80
2017-11-03T10:48:27.475Z,48.07
2017-11-03T10:50:53.936Z,48.26
2017-11-03T10:53:20.202Z,46.54
2017-11-03T10:55:46.556Z,43.07
2017-11-03T10:58:13.613Z,41.02
2017-11-03T11:00:41.297Z,41.33
2017-11-03T11:03:07.668Z,42.31
2017-11-03T11:05:33.973Z,42.90
2017-11-03T11:08:01.139Z,43.75
2017-11-03T11:10:27.482Z,44.70
2017-11-03T11:12:54.588Z,46.01
2017-11-03T11:15:20.896Z,47.69
2017-11-03T11:17:47.928Z,48.65
2017-11-03T11:20:14.241Z,48.16
2017-11-03T11:22:40.508Z,47.63
2017-11-03T11:25:07.548Z,44.63
2017-11-03T11:27:34.577Z,41.31
2017-11-03T11:30:00.859Z,40.82
2017-11-03T11:32:27.157Z,40.12
2017-11-03T11:34:54.163Z,38.30
2017-11-03T11:37:20.462Z,33.91
2017-11-03T11:39:46.731Z,33.94
2017-11-03T11:42:13.073Z,30.48
2017-11-03T11:44:39.383Z,26.74
2017-11-03T11:47:05.720Z,22.58
2017-11-03T11:49:32.075Z,25.26
2017-11-03T11:51:59.088Z,23.77
2017-11-03T11:54:25.428Z,25.88
2017-11-03T11:56:51.859Z,30.16
2017-11-03T11:59:18.362Z,33.11
2017-11-03T12:01:44.694Z,34.09
2017-11-03T12:04:11.020Z,36.20
2017-11-03T12:06:37.310Z,36.63
2017-11-03T12:09:03.586Z,38.43
2017-11-03T12:11:29.928Z,36.12
2017-11-03T12:13:56.206Z,28.05
2017-11-03T12:16:23.981Z,23.34
2017-11-03T12:18:51.100Z,20.63
2017-11-03T12:21:17.399Z,18.55
2017-11-03T12:23:43.688Z,17.96
2017-11-03T12:26:10.878Z,16.61
2017-11-03T12:28:37.203Z,18.34
2017-11-03T12:31:03.573Z,19.43
2017-11-03T12:33:30.772Z,19.03
2017-11-03T12:35:57.854Z,20.11
2017-11-03T12:38:24.259Z,17.05
2017-11-03T12:40:53.482Z,19.09
2017-11-03T12:43:19.785Z,19.11
2017-11-03T12:45:46.092Z,19.96
2017-11-03T12:48:13.172Z,19.34
2017-11-03T12:50:39.513Z,19.35
2017-11-03T12:53:05.842Z,20.87
2017-11-03T12:55:32.276Z,23.16
2017-11-03T12:57:58.601Z,21.05
2017-11-03T13:00:25.408Z,20.73
2017-11-03T13:02:52.449Z,22.65
2017-11-03T13:05:19.505Z,21.73
2017-11-03T13:07:47.312Z,21.84
2017-11-03T13:10:13.639Z,23.51
2017-11-03T13:12:40.009Z,26.24
2017-11-03T13:15:06.343Z,24.94
2017-11-03T13:17:32.771Z,23.65
2017-11-03T13:19:59.129Z,22.00
2017-11-03T13:22:26.240Z,22.08
2017-11-03T13:24:52.575Z,21.60
2017-11-03T13:27:19.142Z,21.13
2017-11-03T13:29:45.463Z,18.99
2017-11-03T13:32:11.848Z,19.11
2017-11-03T13:34:38.268Z,18.59
2017-11-03T13:37:05.360Z,16.92
2017-11-03T13:39:31.709Z,15.41
2017-11-03T13:41:58.120Z,14.57
2017-11-03T13:44:24.417Z,14.71
2017-11-03T13:46:50.791Z,15.68
2017-11-03T13:49:17.125Z,16.06
2017-11-03T13:51:43.468Z,16.75
2017-11-03T13:54:10.798Z,19.79
2017-11-03T13:56:37.129Z,23.34
2017-11-03T13:59:03.577Z,25.92
2017-11-03T14:01:30.916Z,29.23
2017-11-03T14:03:57.249Z,30.99
2017-11-03T14:06:23.677Z,31.44
2017-11-03T14:08:50.106Z,34.62
2017-11-03T14:11:16.665Z,38.04
2017-11-03T14:13:42.983Z,39.74
2017-11-03T14:16:11.784Z,39.46
2017-11-03T14:18:38.096Z,39.27
2017-11-03T14:21:04.474Z,39.15
2017-11-03T14:23:31.630Z,39.65
2017-11-03T14:25:58.295Z,39.70
2017-11-03T14:28:24.736Z,40.26
2017-11-03T14:30:51.158Z,41.47
2017-11-03T14:33:17.507Z,42.51
2017-11-03T14:35:43.865Z,42.54
2017-11-03T14:38:10.632Z,43.05
2017-11-03T14:40:37.742Z,42.89
2017-11-03T14:43:04.420Z,42.38
2017-11-03T14:45:31.093Z,41.75
2017-11-03T14:47:57.458Z,42.23
2017-11-03T14:50:23.777Z,42.00
2017-11-03T14:52:50.258Z,41.90
2017-11-03T14:55:16.713Z,42.05
2017-11-03T14:57:43.229Z,41.51
2017-11-03T15:00:09.619Z,42.30
2017-11-03T15:02:36.017Z,42.97
2017-11-03T15:05:02.441Z,44.00
2017-11-03T15:07:29.584Z,44.69
2017-11-03T15:09:56.825Z,46.08
2017-11-03T15:12:23.377Z,46.25
2017-11-03T15:14:49.779Z,47.15
2017-11-03T15:17:16.294Z,47.73
2017-11-03T15:19:43.040Z,48.77
2017-11-03T15:22:09.525Z,49.65
2017-11-03T15:24:36.716Z,51.11
2017-11-03T15:27:03.049Z,51.50
2017-11-03T15:29:29.331Z,52.85
2017-11-03T15:31:55.654Z,53.54
2017-11-03T15:34:23.085Z,54.37
2017-11-03T15:36:50.072Z,55.47
2017-11-03T15:39:17.413Z,56.30
2017-11-03T15:41:44.549Z,56.72
2017-11-03T15:44:10.881Z,57.23
2017-11-03T15:46:37.216Z,57.37
2017-11-03T15:49:03.620Z,58.11
2017-11-03T15:51:31.007Z,58.94
2017-11-03T15:53:57.407Z,59.45
2017-11-03T15:56:23.939Z,60.06
2017-11-03T15:58:50.366Z,60.28
2017-11-03T16:01:16.805Z,60.85
2017-11-03T16:03:43.147Z,61.31
2017-11-03T16:06:09.596Z,61.68
2017-11-03T16:08:36.002Z,62.16
2017-11-03T16:11:02.361Z,62.66
2017-11-03T16:13:28.909Z,61.88
2017-11-03T16:15:55.304Z,63.21
2017-11-03T16:18:21.706Z,63.18
2017-11-03T16:20:48.831Z,63.15
2017-11-03T16:23:15.316Z,63.58
2017-11-03T16:25:41.712Z,63.97
2017-11-03T16:28:08.805Z,63.86
2017-11-03T16:30:35.181Z,63.75
2017-11-03T16:33:01.679Z,63.86
2017-11-03T16:35:28.389Z,64.42
2017-11-03T16:37:55.649Z,64.53
2017-11-03T16:40:22.006Z,64.59
2017-11-03T16:42:48.667Z,64.83
2017-11-03T16:45:15.834Z,64.70
2017-11-03T16:47:42.162Z,64.86
2017-11-03T16:50:08.638Z,65.41
2017-11-03T16:52:34.962Z,65.33
2017-11-03T16:55:01.340Z,65.72
2017-11-03T16:57:27.731Z,65.67
2017-11-03T16:59:54.307Z,65.90
2017-11-03T17:02:20.654Z,66.08
2017-11-03T17:04:46.958Z,66.71
2017-11-03T17:07:13.302Z,67.39
2017-11-03T17:09:39.632Z,67.86
2017-11-03T17:12:06.037Z,67.96
2017-11-03T17:14:33.366Z,67.89
2017-11-03T17:17:00.476Z,68.21
2017-11-03T17:19:26.857Z,68.75
2017-11-03T17:21:53.343Z,69.18
2017-11-03T17:24:19.974Z,69.35
2017-11-03T17:26:46.332Z,69.60
2017-11-03T17:29:13.657Z,69.69
2017-11-03T17:31:40.015Z,69.59
2017-11-03T17:34:07.100Z,69.49
2017-11-03T17:36:33.463Z,70.11
2017-11-03T17:38:59.848Z,70.08
2017-11-03T17:41:27.046Z,70.51
2017-11-03T17:43:53.722Z,70.76
2017-11-03T17:46:21.005Z,70.83
2017-11-03T17:48:47.608Z,70.96
2017-11-03T17:51:13.886Z,70.85
2017-11-03T17:53:40.507Z,71.18
2017-11-03T17:56:07.703Z,71.39
2017-11-03T17:58:34.493Z,71.43
2017-11-03T18:01:01.681Z,70.72
2017-11-03T18:03:28.171Z,70.71
2017-11-03T18:05:55.387Z,70.89
2017-11-03T18:08:21.785Z,70.89
2017-11-03T18:10:48.166Z,71.26
2017-11-03T18:13:16.094Z,71.60
2017-11-03T18:15:42.489Z,72.06
2017-11-03T18:18:09.563Z,72.62
2017-11-03T18:20:35.956Z,72.57
2017-11-03T18:23:02.256Z,72.50
2017-11-03T18:25:28.788Z,72.72
2017-11-03T18:27:55.244Z,72.86
2017-11-03T18:30:22.284Z,73.13
2017-11-03T18:32:49.251Z,73.27
2017-11-03T18:35:16.563Z,73.39
2017-11-03T18:37:48.359Z,73.21
2017-11-03T18:40:14.833Z,72.91
2017-11-03T18:42:41.262Z,72.69
2017-11-03T18:45:08.812Z,73.25
2017-11-03T18:47:35.908Z,73.48
2017-11-03T18:50:03.010Z,73.42
2017-11-03T18:52:30.262Z,73.58
2017-11-03T18:54:57.798Z,73.67
2017-11-03T18:57:24.349Z,74.03
2017-11-03T18:59:51.428Z,74.10
2017-11-03T19:02:19.960Z,74.12
2017-11-03T19:04:46.363Z,73.93
2017-11-03T19:07:12.800Z,73.73
2017-11-03T19:09:39.538Z,73.77
2017-11-03T19:12:06.062Z,73.89
2017-11-03T19:14:32.440Z,74.08
2017-11-03T19:16:58.821Z,74.13
2017-11-03T19:19:25.285Z,74.20
2017-11-03T19:21:51.699Z,74.30
2017-11-03T19:24:18.122Z,74.42
2017-11-03T19:26:44.511Z,74.52
2017-11-03T19:29:11.553Z,74.79
2017-11-03T19:31:38.042Z,74.83
2017-11-03T19:34:04.380Z,74.71
2017-11-03T19:36:31.139Z,74.86
2017-11-03T19:38:57.511Z,74.82
2017-11-03T19:41:24.632Z,74.49
2017-11-03T19:43:50.953Z,74.57
2017-11-03T19:46:17.328Z,74.50
2017-11-03T19:48:44.496Z,74.75
2017-11-03T19:51:10.915Z,75.16
2017-11-03T19:53:38.003Z,75.48
2017-11-03T19:56:04.406Z,75.42
2017-11-03T19:58:31.611Z,75.29
2017-11-03T20:00:58.240Z,75.22
2017-11-03T20:03:24.927Z,75.08
2017-11-03T20:05:52.242Z,75.01
2017-11-03T20:08:18.682Z,75.26
2017-11-03T20:10:45.642Z,76.06
2017-11-03T20:13:12.793Z,75.67
2017-11-03T20:15:39.994Z,75.07
2017-11-03T20:18:06.658Z,74.79
2017-11-03T20:20:33.111Z,74.98
2017-11-03T20:23:00.295Z,75.19
2017-11-03T20:25:27.460Z,75.57
2017-11-03T20:27:53.969Z,75.73
2017-11-03T20:30:21.138Z,75.66
2017-11-03T20:32:47.562Z,75.69
2017-11-03T20:35:14.022Z,74.95
2017-11-03T20:37:40.579Z,74.95
2017-11-03T20:40:06.947Z,75.47
2017-11-03T20:42:34.185Z,75.38
2017-11-03T20:45:00.690Z,75.98
2017-11-03T20:47:27.034Z,76.48
2017-11-03T20:49:53.408Z,76.03
2017-11-03T20:52:19.938Z,76.08
2017-11-03T20:54:47.148Z,76.33
2017-11-03T20:57:13.510Z,76.15
2017-11-03T20:59:40.150Z,76.21
2017-11-03T21:02:06.522Z,76.44
2017-11-03T21:04:33.769Z,76.40
2017-11-03T21:07:00.346Z,76.30
2017-11-03T21:09:26.768Z,76.43
2017-11-03T21:11:54.377Z,76.70
2017-11-03T21:14:21.533Z,77.19
2017-11-03T21:16:47.997Z,77.01
2017-11-03T21:19:14.638Z,76.92
2017-11-03T21:21:41.240Z,76.86
2017-11-03T21:24:08.588Z,76.11
2017-11-03T21:26:35.762Z,76.11
2017-11-03T21:29:02.055Z,76.50
2017-11-03T21:31:29.406Z,76.37
2017-11-03T21:33:55.912Z,75.96
2017-11-03T21:36:22.420Z,76.10
2017-11-03T21:38:48.837Z,77.26
2017-11-03T21:41:15.924Z,77.42
2017-11-03T21:43:42.290Z,77.47
2017-11-03T21:46:08.852Z,77.51
2017-11-03T21:48:35.505Z,77.19
2017-11-03T21:51:02.793Z,76.73
2017-11-03T21:53:30.315Z,76.59
2017-11-03T21:55:57.504Z,76.57
2017-11-03T21:58:24.727Z,76.52
2017-11-03T22:00:53.279Z,76.50
2017-11-03T22:03:19.715Z,76.43
2017-11-03T22:05:46.127Z,76.57
2017-11-03T22:08:12.482Z,76.94
2017-11-03T22:10:39.584Z,76.83
2017-11-03T22:13:05.942Z,76.99
2017-11-03T22:15:32.399Z,76.36
2017-11-03T22:17:58.818Z,76.71
2017-11-03T22:20:25.285Z,77.01
2017-11-03T22:22:51.576Z,76.93
2017-11-03T22:25:17.956Z,76.94
2017-11-03T22:27:44.316Z,76.80
2017-11-03T22:30:11.010Z,77.01
2017-11-03T22:32:38.142Z,77.14
2017-11-03T22:35:05.339Z,77.33
2017-11-03T22:37:31.887Z,77.19
2017-11-03T22:39:58.425Z,77.06
2017-11-03T22:42:24.801Z,77.09
2017-11-03T22:44:51.105Z,77.33
2017-11-03T22:47:17.540Z,77.30
2017-11-03T22:49:43.869Z,76.93
2017-11-03T22:52:10.232Z,77.16
2017-11-03T22:54:36.776Z,77.32
2017-11-03T22:57:03.898Z,77.17
2017-11-03T22:59:30.210Z,77.19
2017-11-03T23:01:57.680Z,77.37
2017-11-03T23:04:24.054Z,77.42
2017-11-03T23:06:51.109Z,77.34
2017-11-03T23:09:18.297Z,77.37
2017-11-03T23:11:44.679Z,77.47
2017-11-03T23:14:11.751Z,77.37
2017-11-03T23:16:38.186Z,77.06
2017-11-03T23:19:04.620Z,77.14
2017-11-03T23:21:30.984Z,77.12
2017-11-03T23:23:57.344Z,77.30
2017-11-03T23:26:23.804Z,77.38
2017-11-03T23:28:50.181Z,77.38
2017-11-03T23:31:16.537Z,77.71
2017-11-03T23:33:43.007Z,78.07
2017-11-03T23:36:09.329Z,78.01
2017-11-03T23:38:36.894Z,78.09
2017-11-03T23:41:03.269Z,78.11
2017-11-03T23:43:29.701Z,77.98
2017-11-03T23:45:56.042Z,77.74
2017-11-03T23:48:22.429Z,77.60
2017-11-03T23:50:48.728Z,77.46
2017-11-03T23:53:15.231Z,76.57
2017-11-03T23:55:41.634Z,76.81
2017-11-03T23:58:08.020Z,77.27
